Adamsville, Rhode Island
Current Conditions -  °F | °C
As of 11:53 PM on Monday 22 Dec 2014 (Local Time) from KUUU Reporting Station
Overcast Overcast  
Wind Chill: 35°   Ceiling: 4600
Heat Index: 42°   Visibility: 10mi
Dew Point: 37°   Wind: 13mph
Humidity: 82%   Direction: 90°E
Pressure: 30.24"   Gusts: NA
Location:  41.55°N, 71.13°W
Report Text: KUUU 230453Z AUTO 09011KT 10SM OVC046 06/03 A3024 RMK AO2 SLP239 T00560028 400671006
Loading
Personal Weather Stations






























Interactive Weather Map New forecast layout! Learn more

10-Day Weather Forecast

Advertisements
Track Severe Weather on mobile